createdAt,value
2019-04-22T00:02:24.628Z,65.97
2019-04-22T00:05:07.229Z,62.03
2019-04-22T00:07:53.304Z,67.40
2019-04-22T00:10:28.952Z,61.80
2019-04-22T00:13:11.293Z,68.80
2019-04-22T00:15:20.164Z,61.10
2019-04-22T00:18:11.632Z,54.80
2019-04-22T00:20:30.782Z,51.50
2019-04-22T00:23:00.098Z,58.10
2019-04-22T00:25:45.490Z,59.60
2019-04-22T00:28:08.186Z,57.60
2019-04-22T00:30:35.971Z,57.77
2019-04-22T00:33:11.623Z,64.80
2019-04-22T00:35:41.359Z,53.30
2019-04-22T00:40:56.297Z,57.60
2019-04-22T00:43:21.071Z,57.63
2019-04-22T00:45:49.196Z,54.80
2019-04-22T00:51:05.805Z,54.65
2019-04-22T00:53:33.427Z,57.33
2019-04-22T00:56:13.797Z,59.30
2019-04-22T00:58:41.174Z,56.53
2019-04-22T01:03:50.509Z,54.90
2019-04-22T01:08:53.813Z,60.03
2019-04-22T01:11:22.767Z,54.57
2019-04-22T01:13:52.011Z,62.13
2019-04-22T01:16:25.735Z,54.63
2019-04-22T01:18:57.463Z,50.70
2019-04-22T01:21:30.755Z,58.33
2019-04-22T01:23:56.589Z,51.67
2019-04-22T01:26:24.299Z,56.08
2019-04-22T01:28:53.513Z,55.30
2019-04-22T01:31:18.137Z,52.30
2019-04-22T01:33:49.776Z,52.57
2019-04-22T01:36:38.212Z,58.97
2019-04-22T01:39:13.401Z,55.33
2019-04-22T01:41:48.413Z,57.60
2019-04-22T01:51:58.673Z,53.57
2019-04-22T01:54:27.252Z,57.83
2019-04-22T01:56:53.836Z,65.00
2019-04-22T01:59:15.718Z,56.97
2019-04-22T02:04:35.384Z,56.37
2019-04-22T02:06:57.535Z,51.60
2019-04-22T02:09:31.151Z,49.30
2019-04-22T02:12:00.565Z,61.43
2019-04-22T02:14:34.127Z,54.87
2019-04-22T02:17:01.305Z,54.27
2019-04-22T02:21:59.701Z,50.23
2019-04-22T02:24:39.858Z,58.80
2019-04-22T02:27:10.947Z,60.90
2019-04-22T02:32:19.506Z,57.57
2019-04-22T02:34:46.005Z,53.37
2019-04-22T02:37:21.021Z,55.60
2019-04-22T02:39:52.797Z,56.80
2019-04-22T02:44:46.628Z,60.47
2019-04-22T02:49:47.397Z,59.83
2019-04-22T02:52:27.776Z,56.23
2019-04-22T02:54:55.048Z,59.80
2019-04-22T03:00:00.484Z,68.70
2019-04-22T03:02:46.119Z,63.13
2019-04-22T03:05:06.195Z,61.27
2019-04-22T03:09:59.472Z,62.43
2019-04-22T03:12:29.063Z,63.27
2019-04-22T03:14:59.979Z,57.73
2019-04-22T03:17:38.352Z,56.20
2019-04-22T03:20:22.110Z,61.77
2019-04-22T03:22:34.392Z,58.63
2019-04-22T03:25:43.810Z,55.47
2019-04-22T03:40:43.269Z,55.87
2019-04-22T03:42:57.786Z,59.20
2019-04-22T03:57:56.067Z,57.50
2019-04-22T04:00:36.042Z,54.67
2019-04-22T04:03:04.690Z,52.87
2019-04-22T04:05:39.518Z,58.47
2019-04-22T04:08:12.092Z,48.10
2019-04-22T04:13:19.694Z,50.63
2019-04-22T04:15:32.819Z,51.93
2019-04-22T04:18:06.891Z,45.23
2019-04-22T04:20:45.102Z,52.80
2019-04-22T04:28:31.538Z,48.80
2019-04-22T04:30:42.834Z,44.03
2019-04-22T04:33:23.405Z,46.60
2019-04-22T04:38:28.922Z,49.83
2019-04-22T04:40:58.248Z,43.40
2019-04-22T04:43:25.771Z,40.30
2019-04-22T04:46:02.893Z,46.10
2019-04-22T04:48:39.087Z,44.43
2019-04-22T04:51:07.790Z,44.33
2019-04-22T04:56:01.877Z,46.37
2019-04-22T05:01:12.240Z,39.23
2019-04-22T05:06:09.977Z,43.43
2019-04-22T05:08:52.355Z,37.37
2019-04-22T05:11:05.572Z,48.83
2019-04-22T05:26:18.239Z,37.77
2019-04-22T05:28:42.240Z,34.10
2019-04-22T05:31:15.442Z,38.13
2019-04-22T05:33:48.348Z,37.17
2019-04-22T05:41:16.372Z,36.73
2019-04-22T05:43:51.298Z,34.87
2019-04-22T05:46:20.501Z,31.73
2019-04-22T05:48:53.783Z,31.73
2019-04-22T05:51:29.347Z,32.13
2019-04-22T05:53:54.255Z,33.83
2019-04-22T05:56:34.771Z,41.27
2019-04-22T06:01:41.726Z,29.93
2019-04-22T06:04:05.366Z,33.63
2019-04-22T06:06:34.194Z,36.30
2019-04-22T06:09:05.124Z,30.30
2019-04-22T06:11:33.998Z,29.33
2019-04-22T06:14:12.335Z,30.90
2019-04-22T06:16:50.399Z,27.40
2019-04-22T06:21:52.036Z,27.58
2019-04-22T06:24:26.078Z,28.43
2019-04-22T06:29:28.475Z,23.73
2019-04-22T06:32:17.585Z,27.63
2019-04-22T06:34:28.773Z,24.70
2019-04-22T06:39:34.550Z,24.30
2019-04-22T06:42:08.724Z,21.07
2019-04-22T06:44:37.042Z,27.60
2019-04-22T06:47:05.315Z,22.77
2019-04-22T06:49:42.182Z,22.27
2019-04-22T06:52:16.897Z,32.57
2019-04-22T06:54:44.646Z,29.30
2019-04-22T06:57:17.222Z,26.27
2019-04-22T06:59:42.641Z,26.30
2019-04-22T07:02:16.475Z,20.57
2019-04-22T07:04:53.835Z,22.80
2019-04-22T07:07:19.051Z,24.23
2019-04-22T07:12:24.698Z,32.47
2019-04-22T07:14:54.583Z,24.00
2019-04-22T07:17:22.071Z,24.57
2019-04-22T07:19:51.238Z,19.00
2019-04-22T07:22:30.650Z,21.37
2019-04-22T07:24:58.973Z,21.10
2019-04-22T07:27:28.038Z,23.20
2019-04-22T07:32:53.536Z,17.90
2019-04-22T07:35:07.475Z,17.10
2019-04-22T07:37:38.981Z,22.17
2019-04-22T07:40:02.440Z,16.27
2019-04-22T07:42:36.918Z,17.80
2019-04-22T07:45:10.274Z,17.97
2019-04-22T07:47:44.627Z,19.47
2019-04-22T07:50:25.664Z,19.20
2019-04-22T07:52:49.091Z,17.07
2019-04-22T07:55:12.019Z,18.67
2019-04-22T07:57:51.860Z,17.77
2019-04-22T08:00:35.721Z,19.53
2019-04-22T08:03:01.342Z,16.67
2019-04-22T08:05:24.841Z,16.07
2019-04-22T08:07:59.440Z,18.60
2019-04-22T08:10:31.410Z,17.50
2019-04-22T08:13:01.842Z,15.57
2019-04-22T08:15:31.284Z,22.63
2019-04-22T08:20:39.188Z,16.90
2019-04-22T08:23:04.634Z,16.47
2019-04-22T08:25:38.829Z,13.75
2019-04-22T08:28:11.390Z,23.73
2019-04-22T08:30:50.509Z,16.67
2019-04-22T08:33:22.224Z,15.77
2019-04-22T08:36:00.808Z,18.30
2019-04-22T08:38:14.690Z,18.70
2019-04-22T08:41:17.863Z,24.05
2019-04-22T08:43:51.455Z,21.43
2019-04-22T08:46:17.039Z,22.47
2019-04-22T08:48:48.438Z,16.50
2019-04-22T08:51:15.065Z,17.83
2019-04-22T08:53:51.857Z,20.00
2019-04-22T08:56:29.865Z,15.03
2019-04-22T08:58:50.169Z,22.23
2019-04-22T09:01:22.682Z,21.20
2019-04-22T09:03:52.750Z,14.47
2019-04-22T09:06:48.072Z,20.53
2019-04-22T09:11:33.720Z,21.90
2019-04-22T09:14:08.666Z,16.60
2019-04-22T09:16:31.819Z,17.23
2019-04-22T09:19:00.893Z,17.60
2019-04-22T09:24:05.021Z,14.73
2019-04-22T09:26:38.857Z,14.37
2019-04-22T09:29:16.163Z,15.43
2019-04-22T09:32:03.855Z,14.63
2019-04-22T09:34:06.490Z,16.53
2019-04-22T09:36:44.326Z,18.30
2019-04-22T09:39:19.557Z,14.00
2019-04-22T09:41:47.610Z,16.20
2019-04-22T09:44:16.466Z,15.57
2019-04-22T09:46:47.121Z,14.30
2019-04-22T09:49:19.306Z,13.33
2019-04-22T09:51:52.540Z,16.40
2019-04-22T09:54:21.691Z,17.13
2019-04-22T09:56:51.776Z,12.70
2019-04-22T09:59:43.690Z,13.20
2019-04-22T10:02:09.952Z,13.83
2019-04-22T10:04:25.370Z,12.50
2019-04-22T10:07:04.282Z,12.97
2019-04-22T10:12:02.750Z,11.53
2019-04-22T10:17:04.965Z,14.63
2019-04-22T10:19:38.746Z,10.90
2019-04-22T10:22:17.106Z,12.23
2019-04-22T10:24:38.809Z,12.60
2019-04-22T10:27:05.979Z,8.10
2019-04-22T10:29:52.210Z,11.03
2019-04-22T10:32:11.296Z,13.13
2019-04-22T10:34:37.927Z,11.77
2019-04-22T10:37:02.696Z,10.97
2019-04-22T10:39:39.923Z,9.50
2019-04-22T10:42:03.147Z,11.40
2019-04-22T10:44:33.245Z,8.83
2019-04-22T10:47:02.590Z,18.93
2019-04-22T10:49:31.844Z,12.57
2019-04-22T10:52:02.665Z,9.53
2019-04-22T10:54:33.689Z,7.60
2019-04-22T10:57:03.265Z,12.63
2019-04-22T10:59:34.351Z,11.73
2019-04-22T11:02:05.594Z,9.37
2019-04-22T11:04:36.339Z,11.83
2019-04-22T11:07:11.099Z,10.23
2019-04-22T11:09:50.767Z,11.10
2019-04-22T11:12:17.031Z,12.30
2019-04-22T11:14:45.428Z,12.13
2019-04-22T11:17:15.612Z,11.30
2019-04-22T11:19:45.803Z,9.60
2019-04-22T11:22:22.114Z,13.67
2019-04-22T11:24:48.584Z,9.30
2019-04-22T11:27:21.198Z,12.30
2019-04-22T11:29:53.205Z,13.20
2019-04-22T11:32:22.589Z,10.47
2019-04-22T11:34:52.075Z,12.60
2019-04-22T11:37:24.766Z,8.00
2019-04-22T11:40:02.163Z,9.40
2019-04-22T11:42:25.943Z,9.33
2019-04-22T11:44:55.386Z,14.43
2019-04-22T11:47:25.548Z,15.43
2019-04-22T11:49:54.976Z,15.23
2019-04-22T11:52:24.742Z,9.93
2019-04-22T11:54:54.921Z,12.43
2019-04-22T11:57:25.372Z,9.83
2019-04-22T11:59:54.812Z,9.80
2019-04-22T12:02:27.159Z,23.77
2019-04-22T12:04:58.217Z,9.77
2019-04-22T12:07:33.577Z,15.83
2019-04-22T12:10:22.342Z,10.60
2019-04-22T12:12:36.314Z,11.30
2019-04-22T12:15:06.512Z,11.50
2019-04-22T12:17:36.157Z,13.10
2019-04-22T12:20:08.799Z,10.50
2019-04-22T12:22:38.900Z,9.27
2019-04-22T12:25:12.366Z,16.00
2019-04-22T12:27:43.123Z,10.87
2019-04-22T12:30:14.614Z,9.50
2019-04-22T12:32:45.560Z,11.43
2019-04-22T12:35:17.878Z,11.70
2019-04-22T12:37:54.072Z,8.30
2019-04-22T12:40:31.552Z,13.57
2019-04-22T12:42:51.387Z,10.70
2019-04-22T12:45:22.461Z,17.23
2019-04-22T12:47:53.827Z,9.67
2019-04-22T12:50:29.237Z,12.07
2019-04-22T12:52:59.415Z,8.97
2019-04-22T12:55:26.073Z,12.60
2019-04-22T12:57:58.631Z,8.97
2019-04-22T13:00:28.463Z,11.13
2019-04-22T13:02:58.906Z,11.20
2019-04-22T13:05:29.206Z,8.60
2019-04-22T13:08:00.099Z,10.90
2019-04-22T13:10:40.473Z,6.20
2019-04-22T13:13:02.792Z,10.50
2019-04-22T13:15:33.041Z,10.20
2019-04-22T13:18:13.576Z,13.33
2019-04-22T13:20:36.650Z,10.00
2019-04-22T13:23:07.585Z,12.80
2019-04-22T13:25:38.791Z,8.13
2019-04-22T13:28:11.235Z,7.50
2019-04-22T13:30:41.721Z,9.17
2019-04-22T13:33:12.667Z,8.10
2019-04-22T13:35:43.632Z,7.20
2019-04-22T13:38:15.237Z,9.00
2019-04-22T13:41:00.670Z,10.83
2019-04-22T13:43:16.759Z,8.53
2019-04-22T13:45:47.756Z,10.53
2019-04-22T13:48:40.041Z,5.77
2019-04-22T13:51:21.939Z,6.67
2019-04-22T13:54:14.016Z,5.73
2019-04-22T13:56:15.560Z,12.40
2019-04-22T13:58:40.992Z,5.40
2019-04-22T14:01:04.929Z,9.33
2019-04-22T14:03:52.270Z,6.47
2019-04-22T14:06:22.681Z,6.43
2019-04-22T14:08:53.430Z,5.50
2019-04-22T14:11:32.374Z,4.77
2019-04-22T14:13:56.608Z,3.77
2019-04-22T14:16:27.001Z,4.30
2019-04-22T14:18:58.131Z,5.13
2019-04-22T14:21:27.564Z,5.53
2019-04-22T14:23:58.605Z,6.33
2019-04-22T14:26:46.888Z,6.40
2019-04-22T14:28:59.984Z,4.90
2019-04-22T14:31:30.893Z,12.73
2019-04-22T14:34:04.976Z,4.83
2019-04-22T14:36:33.039Z,9.87
2019-04-22T14:39:03.943Z,9.47
2019-04-22T14:41:49.734Z,7.77
2019-04-22T14:45:07.109Z,9.33
2019-04-22T14:47:11.602Z,4.10
2019-04-22T14:49:40.643Z,15.87
2019-04-22T14:52:13.036Z,11.57
2019-04-22T14:54:33.695Z,4.50
2019-04-22T14:56:48.577Z,10.30
2019-04-22T14:59:18.866Z,6.90
2019-04-22T15:01:49.768Z,7.83
2019-04-22T15:04:19.659Z,6.53
2019-04-22T15:06:52.754Z,7.20
2019-04-22T15:09:23.993Z,7.27
2019-04-22T15:12:05.779Z,6.97
2019-04-22T15:14:25.781Z,10.70
2019-04-22T15:17:20.814Z,6.67
2019-04-22T15:20:12.231Z,10.63
2019-04-22T15:22:41.854Z,7.33
2019-04-22T15:25:12.463Z,9.17
2019-04-22T15:27:41.868Z,7.40
2019-04-22T15:30:11.861Z,15.87
2019-04-22T15:32:43.140Z,5.90
2019-04-22T15:35:13.407Z,13.90
2019-04-22T15:37:43.456Z,11.20
2019-04-22T15:40:13.237Z,9.30
2019-04-22T15:42:43.816Z,9.50
2019-04-22T15:45:15.147Z,11.73
2019-04-22T15:50:26.704Z,12.17
2019-04-22T15:53:00.389Z,14.00
2019-04-22T15:55:29.137Z,9.30
2019-04-22T15:58:01.809Z,13.33
2019-04-22T16:00:47.877Z,9.40
2019-04-22T16:03:08.474Z,10.87
2019-04-22T16:05:36.474Z,11.63
2019-04-22T16:08:06.680Z,12.30
2019-04-22T16:10:37.741Z,8.97
2019-04-22T16:13:13.217Z,11.87
2019-04-22T16:15:38.614Z,14.07
2019-04-22T16:18:10.579Z,7.90
2019-04-22T16:20:40.520Z,11.17
2019-04-22T16:23:29.771Z,6.13
2019-04-22T16:26:09.438Z,8.33
2019-04-22T16:28:39.659Z,11.90
2019-04-22T16:31:09.421Z,14.40
2019-04-22T16:33:41.438Z,10.73
2019-04-22T16:36:11.034Z,8.60
2019-04-22T16:38:42.795Z,10.43
2019-04-22T16:41:12.893Z,6.10
2019-04-22T16:43:42.931Z,12.23
2019-04-22T16:46:12.201Z,10.23
2019-04-22T16:48:43.410Z,11.40
2019-04-22T16:51:13.893Z,11.13
2019-04-22T16:53:43.318Z,13.57
2019-04-22T16:56:13.021Z,12.33
2019-04-22T16:58:44.814Z,13.90
2019-04-22T17:01:48.557Z,9.53
2019-04-22T17:04:26.322Z,5.90
2019-04-22T17:06:57.481Z,7.60
2019-04-22T17:09:27.853Z,8.37
2019-04-22T17:11:58.101Z,6.70
2019-04-22T17:14:37.522Z,8.57
2019-04-22T17:17:00.166Z,8.83
2019-04-22T17:19:31.081Z,10.63
2019-04-22T17:22:01.695Z,13.87
2019-04-22T17:24:31.913Z,7.53
2019-04-22T17:27:02.276Z,9.80
2019-04-22T17:29:34.665Z,9.60
2019-04-22T17:32:10.132Z,9.53
2019-04-22T17:34:36.020Z,8.70
2019-04-22T17:37:14.179Z,8.43
2019-04-22T17:39:49.143Z,7.07
2019-04-22T17:42:29.393Z,5.10
2019-04-22T17:45:22.281Z,8.30
2019-04-22T17:48:14.188Z,8.50
2019-04-22T17:50:44.435Z,10.43
2019-04-22T17:53:24.881Z,9.10
2019-04-22T17:55:49.465Z,9.90
2019-04-22T17:58:21.094Z,7.00
2019-04-22T18:00:44.473Z,5.62
2019-04-22T18:03:12.766Z,11.53
2019-04-22T18:05:41.006Z,7.37
2019-04-22T18:08:25.606Z,8.70
2019-04-22T18:10:56.084Z,8.33
2019-04-22T18:13:32.070Z,12.37
2019-04-22T18:16:01.041Z,8.60
2019-04-22T18:18:33.650Z,12.57
2019-04-22T18:20:52.127Z,5.60
2019-04-22T18:23:19.222Z,5.57
2019-04-22T18:26:00.457Z,11.70
2019-04-22T18:28:42.192Z,9.27
2019-04-22T18:31:03.188Z,6.47
2019-04-22T18:33:34.370Z,2.97
2019-04-22T18:36:05.227Z,7.40
2019-04-22T18:38:48.146Z,7.03
2019-04-22T18:41:04.849Z,8.27
2019-04-22T18:43:44.718Z,4.23
2019-04-22T18:46:15.721Z,4.80
2019-04-22T18:48:45.878Z,4.10
2019-04-22T18:51:30.810Z,8.47
2019-04-22T18:54:19.687Z,4.73
2019-04-22T18:56:46.693Z,8.23
2019-04-22T18:59:10.443Z,4.13
2019-04-22T19:01:33.582Z,4.50
2019-04-22T19:04:11.586Z,8.70
2019-04-22T19:06:56.339Z,4.40
2019-04-22T19:09:38.269Z,5.30
2019-04-22T19:12:18.104Z,7.53
2019-04-22T19:14:41.512Z,7.90
2019-04-22T19:17:21.660Z,4.20
2019-04-22T19:19:43.633Z,3.80
2019-04-22T19:22:17.709Z,5.20
2019-04-22T19:24:44.318Z,5.27
2019-04-22T19:27:15.725Z,8.93
2019-04-22T19:29:55.873Z,5.23
2019-04-22T19:32:46.417Z,8.07
2019-04-22T19:35:09.751Z,10.20
2019-04-22T19:37:44.209Z,8.93
2019-04-22T19:40:36.949Z,6.70
2019-04-22T19:42:57.263Z,4.93
2019-04-22T19:45:15.731Z,3.70
2019-04-22T19:47:58.492Z,2.13
2019-04-22T19:50:28.100Z,3.08
2019-04-22T19:52:59.915Z,4.57
2019-04-22T19:55:30.915Z,19.17
2019-04-22T19:57:54.786Z,5.40
2019-04-22T20:00:49.434Z,3.17
2019-04-22T20:04:12.115Z,8.50
2019-04-22T20:06:37.852Z,4.37
2019-04-22T20:09:16.984Z,2.90
2019-04-22T20:11:41.852Z,6.67
2019-04-22T20:14:12.680Z,5.67
2019-04-22T20:16:38.568Z,2.90
2019-04-22T20:19:19.123Z,7.30
2019-04-22T20:21:51.818Z,4.17
2019-04-22T20:24:10.044Z,2.60
2019-04-22T20:26:59.536Z,2.13
2019-04-22T20:29:27.139Z,3.07
2019-04-22T20:31:57.212Z,3.60
2019-04-22T20:34:26.472Z,3.40
2019-04-22T20:37:03.523Z,2.50
2019-04-22T20:39:33.420Z,1.63
2019-04-22T20:42:12.445Z,2.90
2019-04-22T20:44:36.971Z,3.83
2019-04-22T20:47:04.615Z,13.80
2019-04-22T20:49:40.335Z,2.23
2019-04-22T20:52:13.664Z,3.80
2019-04-22T20:54:40.778Z,5.13
2019-04-22T20:57:07.375Z,2.47
2019-04-22T20:59:42.521Z,5.70
2019-04-22T21:02:07.617Z,2.43
2019-04-22T21:04:35.932Z,9.20
2019-04-22T21:07:16.808Z,6.03
2019-04-22T21:09:49.228Z,3.10
2019-04-22T21:12:14.888Z,3.20
2019-04-22T21:14:55.180Z,14.03
2019-04-22T21:17:25.011Z,2.70
2019-04-22T21:20:00.126Z,2.90
2019-04-22T21:22:25.997Z,5.57
2019-04-22T21:24:52.845Z,11.23
2019-04-22T21:27:32.227Z,4.87
2019-04-22T21:29:56.964Z,3.70
2019-04-22T21:32:32.511Z,6.07
2019-04-22T21:35:22.943Z,2.63
2019-04-22T21:37:37.866Z,3.33
2019-04-22T21:39:58.572Z,2.90
2019-04-22T21:42:34.719Z,5.63
2019-04-22T21:45:04.732Z,3.37
2019-04-22T21:47:44.863Z,11.17
2019-04-22T21:50:28.243Z,6.10
2019-04-22T21:52:40.732Z,3.03
2019-04-22T21:55:16.637Z,3.10
2019-04-22T21:58:08.021Z,3.97
2019-04-22T22:00:53.497Z,4.20
2019-04-22T22:03:20.634Z,2.80
2019-04-22T22:05:36.875Z,5.60
2019-04-22T22:08:23.219Z,4.33
2019-04-22T22:10:44.989Z,3.90
2019-04-22T22:13:20.133Z,12.93
2019-04-22T22:15:51.063Z,3.20
2019-04-22T22:18:16.543Z,11.27
2019-04-22T22:21:13.051Z,7.70
2019-04-22T22:25:52.275Z,4.33
2019-04-22T22:28:40.005Z,8.23
2019-04-22T22:31:05.084Z,5.37
2019-04-22T22:33:37.403Z,8.17
2019-04-22T22:36:03.585Z,2.73
2019-04-22T22:38:31.447Z,2.70
2019-04-22T22:40:48.000Z,7.40
2019-04-22T22:43:26.606Z,6.30
2019-04-22T22:45:55.254Z,4.03
2019-04-22T22:48:43.429Z,9.43
2019-04-22T22:51:09.864Z,3.60
2019-04-22T22:53:47.910Z,4.70
2019-04-22T22:56:10.736Z,8.53
2019-04-22T22:58:50.528Z,5.50
2019-04-22T23:01:14.985Z,7.83
2019-04-22T23:06:26.167Z,11.23
2019-04-22T23:09:01.879Z,4.27
2019-04-22T23:11:40.487Z,4.13
2019-04-22T23:13:57.874Z,4.70
2019-04-22T23:16:17.669Z,5.17
2019-04-22T23:18:57.625Z,8.40
2019-04-22T23:21:35.191Z,4.67
2019-04-22T23:24:17.352Z,4.40
2019-04-22T23:26:58.844Z,6.77
2019-04-22T23:29:36.649Z,8.73
2019-04-22T23:32:17.248Z,7.07
2019-04-22T23:34:53.441Z,8.13
2019-04-22T23:37:21.710Z,6.30
2019-04-22T23:40:15.786Z,11.13
2019-04-22T23:42:33.397Z,12.13
2019-04-22T23:45:09.057Z,7.70
2019-04-22T23:47:35.371Z,4.10
2019-04-22T23:50:14.179Z,7.07
2019-04-22T23:52:47.948Z,4.80
2019-04-22T23:55:23.038Z,10.80
2019-04-22T23:57:53.273Z,5.07
